O'Neill, NE

5:15 PM CST on January 31, 2015 (GMT -0600)
The O'Neill Municipal-Baker | Change Station
CLOSE
Current Station
Airport
Location: O'Neill,
Elevation: 2031 ft
Nearby Weather Stations
Active Advisory: Winter Weather Advisory

Elev 2031 ft 42.47 °N, 98.69 °W | Updated 20 minutes ago

Light Snow
Light Snow
28 °F
Feels Like 18 °F
N
13
Wind Variable Wind from NNE

Today
High -- | Low -- °F
--% Chance of Precip.
Yesterday
High -- | Low -- °F
Precip. -- in
7:49 AM 5:46 PM
Waxing Gibbous, 92% visible
Pressure 29.94 in
Visibility 1.8 miles
Clouds Overcast 700 ft
Windchill 18 °F
Dew Point 28 °F
Humidity 96%
Rainfall 0.00 in
Snow Depth Not available.
UV 0 out of 12
Pollen .10 out of 12
Air Quality Not available.
Flu Activity Not available.
METAR KONL 312255Z AUTO 03011KT 1 3/4SM -SN OVC007 M02/M02 A2994 RMK AO2 T10201025

More Conditions Fewer Conditions

Pressure 29.94 in
Visibility 1.8 miles
Clouds Overcast 700 ft
Windchill 18 °F
Dew Point 28 °F
Humidity 96%
Rainfall 0.00 in
Snow Depth Not available.
UV 0 out of 12
Pollen .10 out of 12
Air Quality Not available.
Flu Activity Not available.
METAR KONL 312255Z AUTO 03011KT 1 3/4SM -SN OVC007 M02/M02 A2994 RMK AO2 T10201025

More Conditions Fewer Conditions

10-Day Weather Forecast

Almanac

Astronomy

Jan. 31, 2015 Rise Set
Actual Time
Civil Twilight
Nautical Twilight
Astronomical Twilight
Moon
Length of Visible Light
Length of Day
Tomorrow will be .
, % of the Moon is Illuminated

Today's Extremes

State Highs State Lows

Community

WunderPhotos

Upload Photos

1,792,247 photos uploaded!

WunderBlogs® & News

Nearby

Air Quality

  Air Quality AQ Index Pollutant
Not available.

Snow Depth

Station Depth Elevation

Earthquake Activity

City Distance Mag. Time & Date
Minimum magnitude displayed is 2.5.

Coastal Water Temperatures

Place Temperature

Nearby Weather Stations